Terminal Aerodrome Forecast
Issued by NWS

Home | Current Version | Previous Version | Text Only | Print | Product List | Glossary On
Versions: 1 2 3 4 5 6 7 8 9 10 11 12 13 14 15 16 17 18 19 20 21 22 23 24 25 26 27 28 29 30
000
FTUS45 KPIH 251127
TAFSUN
TAF
KSUN 251127Z 2512/2618 32006KT P6SM VCSH BKN090 BKN180
     FM251600 18006KT P6SM SCT070 SCT200
     FM252000 24015KT P6SM FEW070 FEW200
     FM260200 31006KT P6SM FEW080 FEW200
     FM261500 16006KT P6SM FEW130 SCT180
     AMD LTD TO CLD VIS AND WIND TIL 251300=

USA.gov is the U.S. government's official web portal to all federal, state and local government web resources and services.